Terminal Aerodrome Forecast
Issued by NWS Charleston, WV

Current Version | Previous Version | Text Only | Print | Product List | Glossary Off
Versions: 1 2 3 4 5 6 7 8 9 10 11 12 13 14 15 16 17 18 19 20 21 22 23 24 25 26 27 28

000
FTUS41 KRLX 260300 AAB
TAFEKN
TAF AMD
KEKN 260326Z 2603/2624 00000KT 1SM BR SCT020
     FM260600 02005KT P6SM BKN025
     FM261100 36008KT P6SM BKN035
     FM261400 36010KT P6SM BKN040
     FM262100 34010G16KT P6SM SCT045=

USA.gov is the U.S. government's official web portal to all federal, state and local government web resources and services.